createdAt,value
2017-10-23T00:00:56.061Z,100390.05
2017-10-23T00:02:02.886Z,100393.08
2017-10-23T00:03:08.788Z,100391.91
2017-10-23T00:04:14.684Z,100388.88
2017-10-23T00:05:20.921Z,100392.36
2017-10-23T00:06:27.037Z,100390.34
2017-10-23T00:07:33.164Z,100384.81
2017-10-23T00:08:43.078Z,100394.55
2017-10-23T00:09:49.218Z,100395.81
2017-10-23T00:10:55.140Z,100388.81
2017-10-23T00:12:01.314Z,100390.94
2017-10-23T00:13:08.208Z,100398.42
2017-10-23T00:14:15.207Z,100396.16
2017-10-23T00:15:21.291Z,100393.91
2017-10-23T00:16:27.396Z,100396.30
2017-10-23T00:17:33.506Z,100393.00
2017-10-23T00:18:39.625Z,100392.79
2017-10-23T00:19:46.767Z,100389.27
2017-10-23T00:20:52.879Z,100388.84
2017-10-23T00:21:59.009Z,100385.59
2017-10-23T00:23:05.140Z,100391.23
2017-10-23T00:24:11.245Z,100390.21
2017-10-23T00:25:17.652Z,100391.07
2017-10-23T00:26:23.782Z,100385.48
2017-10-23T00:27:29.946Z,100387.29
2017-10-23T00:28:36.023Z,100390.36
2017-10-23T00:29:41.961Z,100391.58
2017-10-23T00:30:48.070Z,100387.95
2017-10-23T00:31:53.991Z,100387.47
2017-10-23T00:33:00.105Z,100390.53
2017-10-23T00:34:06.366Z,100394.05
2017-10-23T00:35:12.275Z,100387.53
2017-10-23T00:36:18.386Z,100389.03
2017-10-23T00:37:24.522Z,100384.08
2017-10-23T00:38:30.645Z,100391.91
2017-10-23T00:39:36.792Z,100395.27
2017-10-23T00:40:42.547Z,100383.60
2017-10-23T00:41:48.715Z,100393.70
2017-10-23T00:42:54.843Z,100388.75
2017-10-23T00:44:00.925Z,100393.56
2017-10-23T00:45:06.323Z,100390.37
2017-10-23T00:46:12.407Z,100396.36
2017-10-23T00:47:18.552Z,100395.56
2017-10-23T00:48:24.460Z,100396.02
2017-10-23T00:49:30.579Z,100397.30
2017-10-23T00:50:36.356Z,100394.10
2017-10-23T00:51:42.535Z,100401.09
2017-10-23T00:52:48.861Z,100397.00
2017-10-23T00:53:54.570Z,100401.76
2017-10-23T00:55:00.472Z,100401.56
2017-10-23T00:56:05.866Z,100399.88
2017-10-23T00:57:11.296Z,100398.75
2017-10-23T00:58:16.443Z,100396.23
2017-10-23T00:59:21.855Z,100393.91
2017-10-23T01:00:27.389Z,100398.63
2017-10-23T01:01:32.312Z,100389.22
2017-10-23T01:02:38.989Z,100397.42
2017-10-23T01:03:45.085Z,100398.30
2017-10-23T01:04:50.452Z,100395.77
2017-10-23T01:05:58.434Z,100393.05
2017-10-23T01:07:04.544Z,100393.20
2017-10-23T01:08:10.612Z,100394.75
2017-10-23T01:09:16.114Z,100395.08
2017-10-23T01:10:22.338Z,100390.78
2017-10-23T01:11:28.444Z,100392.97
2017-10-23T01:12:34.587Z,100391.66
2017-10-23T01:13:40.650Z,100394.41
2017-10-23T01:14:49.382Z,100396.31
2017-10-23T01:15:54.755Z,100390.56
2017-10-23T01:17:00.878Z,100395.03
2017-10-23T01:18:06.626Z,100394.84
2017-10-23T01:19:13.456Z,100390.42
2017-10-23T01:20:18.845Z,100389.59
2017-10-23T01:21:24.389Z,100391.84
2017-10-23T01:22:33.601Z,100391.38
2017-10-23T01:23:39.337Z,100389.75
2017-10-23T01:24:44.740Z,100390.49
2017-10-23T01:25:50.050Z,100392.77
2017-10-23T01:26:55.417Z,100388.10
2017-10-23T01:28:01.509Z,100388.77
2017-10-23T01:29:06.888Z,100383.95
2017-10-23T01:30:12.045Z,100390.52
2017-10-23T01:31:17.204Z,100386.18
2017-10-23T01:32:22.936Z,100383.52
2017-10-23T01:33:30.761Z,100386.36
2017-10-23T01:34:36.302Z,100386.38
2017-10-23T01:35:42.209Z,100392.72
2017-10-23T01:36:47.618Z,100390.57
2017-10-23T01:37:52.968Z,100389.02
2017-10-23T01:38:58.353Z,100389.94
2017-10-23T01:40:04.467Z,100401.02
2017-10-23T01:41:10.191Z,100402.37
2017-10-23T01:42:17.409Z,100403.67
2017-10-23T01:43:22.923Z,100403.30
2017-10-23T01:44:28.135Z,100406.61
2017-10-23T01:45:33.339Z,100404.25
2017-10-23T01:46:38.704Z,100401.70
2017-10-23T01:47:44.116Z,100404.25
2017-10-23T01:48:49.810Z,100406.08
2017-10-23T01:49:55.573Z,100406.67
2017-10-23T01:51:02.202Z,100404.41
2017-10-23T01:52:08.860Z,100407.69
2017-10-23T01:53:15.006Z,100410.75
2017-10-23T01:54:24.054Z,100405.50
2017-10-23T01:55:30.156Z,100412.41
2017-10-23T01:56:36.044Z,100411.38
2017-10-23T01:57:42.510Z,100412.14
2017-10-23T01:58:48.603Z,100410.37
2017-10-23T01:59:54.662Z,100411.88
2017-10-23T02:01:00.435Z,100408.41
2017-10-23T02:02:06.352Z,100413.49
2017-10-23T02:03:11.878Z,100414.50
2017-10-23T02:04:17.946Z,100415.72
2017-10-23T02:05:24.051Z,100412.56
2017-10-23T02:06:30.136Z,100414.17
2017-10-23T02:07:36.250Z,100415.47
2017-10-23T02:08:41.793Z,100411.23
2017-10-23T02:09:48.300Z,100414.59
2017-10-23T02:10:54.897Z,100412.19
2017-10-23T02:12:00.755Z,100418.84
2017-10-23T02:13:06.529Z,100415.21
2017-10-23T02:14:12.654Z,100416.86
2017-10-23T02:15:18.208Z,100416.19
2017-10-23T02:16:24.328Z,100418.61
2017-10-23T02:17:30.436Z,100411.72
2017-10-23T02:18:36.229Z,100415.70
2017-10-23T02:19:41.977Z,100417.70
2017-10-23T02:20:48.144Z,100417.34
2017-10-23T02:21:54.217Z,100417.98
2017-10-23T02:23:00.321Z,100424.83
2017-10-23T02:24:06.205Z,100419.29
2017-10-23T02:25:12.291Z,100419.40
2017-10-23T02:26:18.380Z,100423.60
2017-10-23T02:27:24.494Z,100419.62
2017-10-23T02:28:30.642Z,100426.18
2017-10-23T02:29:38.683Z,100426.16
2017-10-23T02:30:44.787Z,100422.33
2017-10-23T02:31:50.871Z,100428.33
2017-10-23T02:32:57.008Z,100425.98
2017-10-23T02:34:03.108Z,100431.79
2017-10-23T02:35:09.184Z,100425.12
2017-10-23T02:36:15.266Z,100426.72
2017-10-23T02:37:21.429Z,100426.05
2017-10-23T02:38:27.532Z,100431.73
2017-10-23T02:39:33.620Z,100430.96
2017-10-23T02:40:39.733Z,100433.15
2017-10-23T02:41:45.852Z,100430.74
2017-10-23T02:42:51.958Z,100433.31
2017-10-23T02:43:58.044Z,100432.39
2017-10-23T02:45:04.165Z,100427.36
2017-10-23T02:46:13.581Z,100431.66
2017-10-23T02:47:19.674Z,100432.22
2017-10-23T02:48:27.830Z,100430.77
2017-10-23T02:49:33.900Z,100434.36
2017-10-23T02:50:44.492Z,100436.70
2017-10-23T02:51:50.599Z,100439.64
2017-10-23T02:52:56.776Z,100434.20
2017-10-23T02:54:02.891Z,100443.77
2017-10-23T02:55:08.954Z,100433.30
2017-10-23T02:56:15.049Z,100438.52
2017-10-23T02:57:20.957Z,100443.41
2017-10-23T02:58:27.062Z,100443.77
2017-10-23T02:59:33.120Z,100443.87
2017-10-23T03:00:39.201Z,100446.17
2017-10-23T03:01:45.168Z,100452.30
2017-10-23T03:02:51.319Z,100449.28
2017-10-23T03:03:57.411Z,100453.19
2017-10-23T03:05:03.507Z,100449.38
2017-10-23T03:06:09.591Z,100455.58
2017-10-23T03:07:15.674Z,100459.16
2017-10-23T03:08:21.448Z,100455.55
2017-10-23T03:09:27.172Z,100452.84
2017-10-23T03:10:32.627Z,100452.58
2017-10-23T03:11:37.805Z,100446.80
2017-10-23T03:12:43.198Z,100453.34
2017-10-23T03:13:48.422Z,100456.34
2017-10-23T03:14:54.646Z,100450.70
2017-10-23T03:15:59.997Z,100452.20
2017-10-23T03:17:05.148Z,100452.19
2017-10-23T03:18:10.662Z,100451.64
2017-10-23T03:19:16.062Z,100453.69
2017-10-23T03:20:21.501Z,100452.69
2017-10-23T03:21:26.861Z,100452.12
2017-10-23T03:22:32.212Z,100450.79
2017-10-23T03:23:37.596Z,100456.66
2017-10-23T03:24:43.301Z,100454.34
2017-10-23T03:25:49.014Z,100448.22
2017-10-23T03:26:54.360Z,100450.98
2017-10-23T03:27:59.703Z,100450.16
2017-10-23T03:29:09.228Z,100452.39
2017-10-23T03:30:14.878Z,100451.72
2017-10-23T03:31:20.239Z,100450.84
2017-10-23T03:32:25.665Z,100452.48
2017-10-23T03:33:31.542Z,100448.46
2017-10-23T03:34:56.925Z,100444.86
2017-10-23T03:36:21.804Z,100445.00
2017-10-23T03:37:36.426Z,100454.78
2017-10-23T03:38:50.831Z,100455.41
2017-10-23T03:39:57.105Z,100459.43
2017-10-23T03:41:02.835Z,100459.39
2017-10-23T03:42:08.642Z,100454.52
2017-10-23T03:43:14.072Z,100462.62
2017-10-23T03:44:19.312Z,100460.48
2017-10-23T03:45:24.497Z,100462.86
2017-10-23T03:46:30.064Z,100463.70
2017-10-23T03:47:35.453Z,100469.70
2017-10-23T03:48:40.850Z,100468.65
2017-10-23T03:49:46.275Z,100470.70
2017-10-23T03:50:51.650Z,100473.27
2017-10-23T03:51:57.017Z,100472.09
2017-10-23T03:53:02.419Z,100467.94
2017-10-23T03:54:07.812Z,100478.91
2017-10-23T03:55:13.227Z,100470.00
2017-10-23T03:56:18.992Z,100475.66
2017-10-23T03:57:24.359Z,100479.66
2017-10-23T03:58:29.827Z,100477.86
2017-10-23T03:59:35.586Z,100479.79
2017-10-23T04:00:41.034Z,100478.59
2017-10-23T04:01:46.790Z,100480.90
2017-10-23T04:03:12.884Z,100481.80
2017-10-23T04:04:32.278Z,100480.06
2017-10-23T04:05:42.185Z,100479.34
2017-10-23T04:06:50.520Z,100477.80
2017-10-23T04:07:56.826Z,100478.73
2017-10-23T04:09:03.261Z,100474.14
2017-10-23T04:10:19.816Z,100482.14
2017-10-23T04:11:26.634Z,100477.34
2017-10-23T04:12:32.264Z,100482.25
2017-10-23T04:13:37.693Z,100478.28
2017-10-23T04:14:43.128Z,100479.70
2017-10-23T04:15:48.642Z,100478.48
2017-10-23T04:16:54.260Z,100478.95
2017-10-23T04:17:59.674Z,100480.29
2017-10-23T04:19:06.203Z,100485.56
2017-10-23T04:20:12.433Z,100483.67
2017-10-23T04:21:17.695Z,100486.29
2017-10-23T04:22:23.964Z,100491.08
2017-10-23T04:23:29.209Z,100481.05
2017-10-23T04:24:34.285Z,100482.80
2017-10-23T04:25:42.083Z,100488.38
2017-10-23T04:26:47.952Z,100484.66
2017-10-23T04:28:09.713Z,100481.94
2017-10-23T04:29:32.122Z,100482.12
2017-10-23T04:30:38.771Z,100481.05
2017-10-23T04:31:46.948Z,100483.28
2017-10-23T04:32:54.187Z,100484.66
2017-10-23T04:34:01.779Z,100482.92
2017-10-23T04:36:29.653Z,100481.78
2017-10-23T04:37:35.853Z,100476.88
2017-10-23T04:38:41.258Z,100484.44
2017-10-23T04:39:48.440Z,100484.52
2017-10-23T04:40:54.497Z,100480.66
2017-10-23T04:42:04.571Z,100483.95
2017-10-23T04:43:13.249Z,100484.20
2017-10-23T04:44:19.766Z,100484.84
2017-10-23T04:45:25.187Z,100488.05
2017-10-23T04:46:30.588Z,100481.46
2017-10-23T04:47:36.103Z,100484.96
2017-10-23T04:48:41.491Z,100484.01
2017-10-23T04:49:46.860Z,100487.39
2017-10-23T04:50:52.281Z,100485.20
2017-10-23T04:51:57.695Z,100480.11
2017-10-23T04:53:02.930Z,100484.94
2017-10-23T04:54:08.344Z,100484.58
2017-10-23T04:55:13.766Z,100486.22
2017-10-23T04:56:19.351Z,100488.75
2017-10-23T04:57:27.247Z,100488.75
2017-10-23T04:58:34.568Z,100486.17
2017-10-23T04:59:41.199Z,100485.77
2017-10-23T05:00:48.880Z,100481.14
2017-10-23T05:01:56.471Z,100481.70
2017-10-23T05:03:02.216Z,100488.31
2017-10-23T05:04:08.252Z,100486.66
2017-10-23T05:05:14.867Z,100482.22
2017-10-23T05:06:21.303Z,100481.08
2017-10-23T05:07:37.317Z,100482.27
2017-10-23T05:08:43.854Z,100478.39
2017-10-23T05:09:51.474Z,100478.34
2017-10-23T05:10:56.861Z,100484.62
2017-10-23T05:12:02.055Z,100483.33
2017-10-23T05:13:07.453Z,100484.94
2017-10-23T05:14:13.236Z,100481.91
2017-10-23T05:15:19.043Z,100482.84
2017-10-23T05:16:25.225Z,100488.30
2017-10-23T05:17:30.638Z,100488.75
2017-10-23T05:18:36.107Z,100489.00
2017-10-23T05:19:42.317Z,100492.67
2017-10-23T05:20:47.808Z,100488.82
2017-10-23T05:21:53.029Z,100493.71
2017-10-23T05:22:58.545Z,100493.59
2017-10-23T05:24:04.315Z,100495.16
2017-10-23T05:25:09.501Z,100498.02
2017-10-23T05:26:15.246Z,100495.39
2017-10-23T05:27:23.615Z,100498.50
2017-10-23T05:28:28.994Z,100496.44
2017-10-23T05:29:34.414Z,100499.47
2017-10-23T05:30:39.916Z,100503.06
2017-10-23T05:31:45.276Z,100502.97
2017-10-23T05:32:50.685Z,100494.66
2017-10-23T05:33:56.074Z,100492.49
2017-10-23T05:35:02.214Z,100502.91
2017-10-23T05:36:07.599Z,100505.99
2017-10-23T05:37:13.022Z,100504.45
2017-10-23T05:38:18.232Z,100505.70
2017-10-23T05:39:23.615Z,100507.95
2017-10-23T05:40:28.859Z,100502.58
2017-10-23T05:41:34.390Z,100508.64
2017-10-23T05:42:39.848Z,100504.89
2017-10-23T05:43:45.091Z,100512.45
2017-10-23T05:44:50.886Z,100513.17
2017-10-23T05:45:56.720Z,100513.98
2017-10-23T05:47:02.503Z,100512.77
2017-10-23T05:48:07.879Z,100507.55
2017-10-23T05:49:13.661Z,100508.39
2017-10-23T05:50:19.055Z,100506.53
2017-10-23T05:51:24.863Z,100506.09
2017-10-23T05:52:30.286Z,100508.52
2017-10-23T05:53:35.724Z,100507.64
2017-10-23T05:54:41.521Z,100509.60
2017-10-23T05:55:46.708Z,100507.01
2017-10-23T05:56:53.988Z,100508.77
2017-10-23T05:57:59.728Z,100504.84
2017-10-23T05:59:05.162Z,100504.72
2017-10-23T06:00:10.600Z,100509.16
2017-10-23T06:01:19.944Z,100505.13
2017-10-23T06:02:25.864Z,100506.76
2017-10-23T06:03:31.039Z,100510.34
2017-10-23T06:04:36.784Z,100504.23
2017-10-23T06:05:42.229Z,100505.66
2017-10-23T06:06:47.991Z,100511.36
2017-10-23T06:07:55.127Z,100510.59
2017-10-23T06:09:04.952Z,100508.81
2017-10-23T06:10:11.643Z,100505.30
2017-10-23T06:11:17.017Z,100514.14
2017-10-23T06:12:22.404Z,100509.81
2017-10-23T06:13:27.759Z,100515.83
2017-10-23T06:14:33.003Z,100512.96
2017-10-23T06:15:39.194Z,100518.59
2017-10-23T06:16:44.559Z,100510.01
2017-10-23T06:17:52.530Z,100517.84
2017-10-23T06:18:57.957Z,100515.27
2017-10-23T06:20:03.513Z,100520.51
2017-10-23T06:21:08.736Z,100524.05
2017-10-23T06:22:14.830Z,100519.33
2017-10-23T06:23:20.031Z,100526.72
2017-10-23T06:24:25.035Z,100524.13
2017-10-23T06:25:30.882Z,100536.81
2017-10-23T06:26:37.402Z,100526.62
2017-10-23T06:27:42.755Z,100528.04
2017-10-23T06:28:47.959Z,100527.27
2017-10-23T06:29:53.523Z,100526.88
2017-10-23T06:30:58.913Z,100531.66
2017-10-23T06:32:04.280Z,100531.81
2017-10-23T06:33:09.829Z,100531.06
2017-10-23T06:34:17.127Z,100533.14
2017-10-23T06:35:22.682Z,100532.37
2017-10-23T06:36:28.073Z,100538.72
2017-10-23T06:37:33.276Z,100539.22
2017-10-23T06:38:38.962Z,100540.55
2017-10-23T06:39:44.161Z,100541.64
2017-10-23T06:40:49.625Z,100536.84
2017-10-23T06:41:55.323Z,100536.84
2017-10-23T06:43:00.701Z,100539.41
2017-10-23T06:44:06.087Z,100538.72
2017-10-23T06:45:11.835Z,100536.09
2017-10-23T06:46:20.518Z,100539.22
2017-10-23T06:47:25.930Z,100540.64
2017-10-23T06:48:31.306Z,100543.73
2017-10-23T06:49:36.672Z,100544.01
2017-10-23T06:50:44.051Z,100538.13
2017-10-23T06:51:50.210Z,100547.17
2017-10-23T06:52:55.377Z,100551.81
2017-10-23T06:54:01.139Z,100546.06
2017-10-23T06:55:06.517Z,100550.53
2017-10-23T06:56:11.901Z,100549.55
2017-10-23T06:57:17.079Z,100549.07
2017-10-23T06:58:22.737Z,100540.04
2017-10-23T06:59:28.145Z,100547.59
2017-10-23T07:00:33.522Z,100551.61
2017-10-23T07:01:39.030Z,100543.64
2017-10-23T07:02:44.389Z,100549.81
2017-10-23T07:03:49.745Z,100551.22
2017-10-23T07:04:55.116Z,100554.02
2017-10-23T07:06:00.547Z,100554.33
2017-10-23T07:07:06.224Z,100555.55
2017-10-23T07:08:11.575Z,100559.34
2017-10-23T07:09:16.979Z,100554.64
2017-10-23T07:10:23.332Z,100562.41
2017-10-23T07:11:28.853Z,100558.39
2017-10-23T07:12:34.241Z,100556.94
2017-10-23T07:13:39.561Z,100558.16
2017-10-23T07:14:45.633Z,100559.95
2017-10-23T07:15:51.367Z,100561.69
2017-10-23T07:16:57.590Z,100564.88
2017-10-23T07:18:02.743Z,100570.44
2017-10-23T07:19:08.442Z,100571.77
2017-10-23T07:20:13.794Z,100568.48
2017-10-23T07:21:18.988Z,100566.67
2017-10-23T07:22:24.141Z,100571.51
2017-10-23T07:23:29.843Z,100569.56
2017-10-23T07:24:35.227Z,100571.25
2017-10-23T07:25:40.620Z,100569.75
2017-10-23T07:26:47.054Z,100560.98
2017-10-23T07:27:53.820Z,100566.61
2017-10-23T07:28:59.927Z,100565.09
2017-10-23T07:30:05.352Z,100563.74
2017-10-23T07:31:11.330Z,100565.66
2017-10-23T07:32:17.071Z,100560.13
2017-10-23T07:33:22.995Z,100568.09
2017-10-23T07:34:28.745Z,100562.99
2017-10-23T07:35:34.741Z,100560.42
2017-10-23T07:36:41.091Z,100556.98
2017-10-23T07:37:47.241Z,100559.70
2017-10-23T07:38:53.005Z,100560.05
2017-10-23T07:39:59.300Z,100562.63
2017-10-23T07:41:04.796Z,100563.27
2017-10-23T07:42:10.902Z,100567.31
2017-10-23T07:43:17.057Z,100565.54
2017-10-23T07:44:22.848Z,100564.94
2017-10-23T07:45:28.606Z,100572.59
2017-10-23T07:46:34.756Z,100565.16
2017-10-23T07:47:40.484Z,100569.20
2017-10-23T07:48:46.617Z,100571.51
2017-10-23T07:49:52.869Z,100568.91
2017-10-23T07:50:59.025Z,100568.66
2017-10-23T07:52:05.141Z,100572.91
2017-10-23T07:53:11.230Z,100569.16
2017-10-23T07:54:16.993Z,100577.13
2017-10-23T07:55:23.093Z,100577.58
2017-10-23T07:56:29.232Z,100571.29
2017-10-23T07:57:35.330Z,100577.27
2017-10-23T07:58:41.429Z,100573.98
2017-10-23T07:59:47.169Z,100576.83
2017-10-23T08:00:53.873Z,100580.45
2017-10-23T08:02:00.019Z,100573.63
2017-10-23T08:03:05.777Z,100569.82
2017-10-23T08:04:11.922Z,100570.17
2017-10-23T08:05:18.012Z,100572.75
2017-10-23T08:06:24.123Z,100572.08
2017-10-23T08:07:30.200Z,100573.08
2017-10-23T08:08:35.990Z,100572.52
2017-10-23T08:09:42.080Z,100570.41
2017-10-23T08:10:48.189Z,100579.22
2017-10-23T08:11:54.297Z,100576.81
2017-10-23T08:13:00.434Z,100576.25
2017-10-23T08:14:06.535Z,100568.11
2017-10-23T08:15:12.624Z,100577.41
2017-10-23T08:16:18.797Z,100578.90
2017-10-23T08:17:24.905Z,100580.85
2017-10-23T08:18:31.003Z,100575.82
2017-10-23T08:19:37.134Z,100583.98
2017-10-23T08:20:44.158Z,100576.64
2017-10-23T08:21:50.314Z,100584.96
2017-10-23T08:22:56.409Z,100579.45
2017-10-23T08:24:02.491Z,100582.18
2017-10-23T08:25:09.261Z,100583.55
2017-10-23T08:26:15.342Z,100584.03
2017-10-23T08:27:21.428Z,100585.36
2017-10-23T08:28:27.500Z,100590.56
2017-10-23T08:29:33.572Z,100583.13
2017-10-23T08:30:39.680Z,100586.09
2017-10-23T08:31:45.805Z,100582.59
2017-10-23T08:32:51.882Z,100581.95
2017-10-23T08:33:57.956Z,100590.91
2017-10-23T08:35:04.032Z,100588.22
2017-10-23T08:36:10.154Z,100590.16
2017-10-23T08:37:16.281Z,100593.02
2017-10-23T08:38:22.420Z,100592.25
2017-10-23T08:39:28.528Z,100590.03
2017-10-23T08:40:34.657Z,100590.39
2017-10-23T08:41:41.756Z,100583.84
2017-10-23T08:42:47.867Z,100588.25
2017-10-23T08:43:53.945Z,100588.98
2017-10-23T08:45:00.020Z,100584.17
2017-10-23T08:46:07.156Z,100591.17
2017-10-23T08:47:13.285Z,100588.41
2017-10-23T08:48:19.366Z,100591.16
2017-10-23T08:49:25.447Z,100589.30
2017-10-23T08:50:31.187Z,100588.50
2017-10-23T08:51:36.586Z,100595.53
2017-10-23T08:52:43.165Z,100597.83
2017-10-23T08:53:49.277Z,100599.34
2017-10-23T08:54:55.389Z,100596.28
2017-10-23T08:56:01.467Z,100601.84
2017-10-23T08:57:07.566Z,100600.93
2017-10-23T08:58:14.726Z,100602.39
2017-10-23T08:59:20.627Z,100603.50
2017-10-23T09:00:26.048Z,100605.34
2017-10-23T09:01:31.006Z,100604.11
2017-10-23T09:02:37.165Z,100606.73
2017-10-23T09:03:43.927Z,100606.13
2017-10-23T09:04:49.893Z,100603.02
2017-10-23T09:05:55.993Z,100601.50
2017-10-23T09:07:01.892Z,100604.88
2017-10-23T09:08:07.463Z,100605.68
2017-10-23T09:09:13.165Z,100610.73
2017-10-23T09:10:18.529Z,100606.15
2017-10-23T09:11:24.267Z,100599.73
2017-10-23T09:12:30.417Z,100606.69
2017-10-23T09:13:36.337Z,100605.85
2017-10-23T09:14:42.426Z,100607.27
2017-10-23T09:15:48.353Z,100601.31
2017-10-23T09:16:54.585Z,100604.56
2017-10-23T09:18:00.691Z,100602.32
2017-10-23T09:19:06.595Z,100608.12
2017-10-23T09:20:12.645Z,100603.00
2017-10-23T09:21:18.575Z,100604.69
2017-10-23T09:22:24.660Z,100609.83
2017-10-23T09:23:30.767Z,100608.55
2017-10-23T09:24:36.874Z,100611.03
2017-10-23T09:25:50.613Z,100611.03
2017-10-23T09:26:56.716Z,100612.55
2017-10-23T09:28:02.826Z,100614.06
2017-10-23T09:29:08.894Z,100614.78
2017-10-23T09:30:14.989Z,100617.02
2017-10-23T09:31:21.091Z,100628.26
2017-10-23T09:32:27.177Z,100614.38
2017-10-23T09:33:32.900Z,100613.59
2017-10-23T09:34:38.965Z,100615.23
2017-10-23T09:35:45.047Z,100610.77
2017-10-23T09:36:50.593Z,100615.50
2017-10-23T09:37:56.711Z,100615.96
2017-10-23T09:39:02.792Z,100619.91
2017-10-23T09:40:08.689Z,100625.59
2017-10-23T09:41:14.757Z,100620.20
2017-10-23T09:42:20.814Z,100627.09
2017-10-23T09:43:26.911Z,100621.97
2017-10-23T09:44:33.023Z,100619.55
2017-10-23T09:45:39.662Z,100620.06
2017-10-23T09:46:45.781Z,100622.96
2017-10-23T09:47:51.942Z,100620.19
2017-10-23T09:48:58.035Z,100629.55
2017-10-23T09:50:03.754Z,100626.80
2017-10-23T09:51:09.858Z,100631.41
2017-10-23T09:52:15.924Z,100625.61
2017-10-23T09:53:21.859Z,100628.89
2017-10-23T09:54:28.341Z,100625.16
2017-10-23T09:55:38.756Z,100623.92
2017-10-23T09:56:44.829Z,100621.28
2017-10-23T09:57:50.985Z,100631.67
2017-10-23T09:58:57.330Z,100633.30
2017-10-23T10:00:03.057Z,100629.33
2017-10-23T10:01:08.951Z,100629.57
2017-10-23T10:02:15.109Z,100635.24
2017-10-23T10:03:21.248Z,100633.80
2017-10-23T10:04:27.434Z,100636.04
2017-10-23T10:05:33.551Z,100640.67
2017-10-23T10:06:40.458Z,100633.22
2017-10-23T10:07:46.689Z,100633.78
2017-10-23T10:08:52.780Z,100640.33
2017-10-23T10:09:58.886Z,100639.75
2017-10-23T10:11:04.977Z,100642.05
2017-10-23T10:12:11.073Z,100642.73
2017-10-23T10:13:17.228Z,100637.93
2017-10-23T10:14:23.305Z,100642.94
2017-10-23T10:15:29.395Z,100642.21
2017-10-23T10:16:35.475Z,100642.92
2017-10-23T10:17:41.605Z,100641.92
2017-10-23T10:18:47.711Z,100640.70
2017-10-23T10:19:53.805Z,100641.88
2017-10-23T10:20:59.879Z,100641.50
2017-10-23T10:22:05.985Z,100641.87
2017-10-23T10:23:12.119Z,100645.81
2017-10-23T10:24:18.226Z,100646.52
2017-10-23T10:25:24.323Z,100643.75
2017-10-23T10:26:30.444Z,100644.34
2017-10-23T10:27:36.654Z,100646.77
2017-10-23T10:28:42.396Z,100639.59
2017-10-23T10:29:48.516Z,100645.88
2017-10-23T10:30:54.592Z,100643.33
2017-10-23T10:32:00.766Z,100645.59
2017-10-23T10:33:08.234Z,100646.02
2017-10-23T10:34:14.321Z,100651.27
2017-10-23T10:35:20.425Z,100648.73
2017-10-23T10:36:26.542Z,100642.31
2017-10-23T10:37:32.989Z,100645.48
2017-10-23T10:38:39.689Z,100644.70
2017-10-23T10:39:45.763Z,100642.67
2017-10-23T10:40:51.881Z,100648.73
2017-10-23T10:41:57.991Z,100643.61
2017-10-23T10:43:04.077Z,100643.13
2017-10-23T10:44:10.204Z,100640.63
2017-10-23T10:45:16.288Z,100645.02
2017-10-23T10:46:22.428Z,100635.58
2017-10-23T10:47:28.543Z,100637.27
2017-10-23T10:48:38.314Z,100647.06
2017-10-23T10:49:44.402Z,100635.93
2017-10-23T10:50:50.547Z,100637.65
2017-10-23T10:51:56.640Z,100638.88
2017-10-23T10:53:02.744Z,100636.03
2017-10-23T10:54:09.054Z,100633.09
2017-10-23T10:55:15.143Z,100635.02
2017-10-23T10:56:21.203Z,100629.30
2017-10-23T10:57:27.418Z,100627.77
2017-10-23T10:58:33.557Z,100627.41
2017-10-23T10:59:39.461Z,100634.02
2017-10-23T11:00:45.546Z,100633.09
2017-10-23T11:01:51.697Z,100638.00
2017-10-23T11:02:58.461Z,100636.47
2017-10-23T11:04:04.232Z,100633.78
2017-10-23T11:05:09.591Z,100641.36
2017-10-23T11:06:15.705Z,100638.59
2017-10-23T11:07:21.786Z,100650.20
2017-10-23T11:08:27.860Z,100642.76
2017-10-23T11:09:33.997Z,100641.33
2017-10-23T11:10:39.749Z,100644.91
2017-10-23T11:11:45.863Z,100643.97
2017-10-23T11:12:51.804Z,100642.93
2017-10-23T11:13:58.046Z,100637.20
2017-10-23T11:15:04.133Z,100641.79
2017-10-23T11:16:10.231Z,100647.05
2017-10-23T11:17:16.636Z,100638.67
2017-10-23T11:18:22.365Z,100641.92
2017-10-23T11:19:28.447Z,100641.50
2017-10-23T11:20:34.182Z,100630.70
2017-10-23T11:21:42.171Z,100636.13
2017-10-23T11:22:48.282Z,100625.74
2017-10-23T11:23:54.391Z,100631.38
2017-10-23T11:25:00.449Z,100631.97
2017-10-23T11:26:06.209Z,100640.81
2017-10-23T11:27:12.294Z,100632.88
2017-10-23T11:28:18.408Z,100633.18
2017-10-23T11:29:25.934Z,100625.61
2017-10-23T11:30:31.697Z,100632.23
2017-10-23T11:31:37.753Z,100630.84
2017-10-23T11:32:43.628Z,100636.83
2017-10-23T11:33:50.064Z,100635.09
2017-10-23T11:34:56.151Z,100642.11
2017-10-23T11:36:02.249Z,100633.63
2017-10-23T11:37:09.742Z,100635.11
2017-10-23T11:38:15.872Z,100640.30
2017-10-23T11:39:21.969Z,100630.93
2017-10-23T11:40:28.096Z,100643.72
2017-10-23T11:41:34.197Z,100635.56
2017-10-23T11:42:39.991Z,100638.09
2017-10-23T11:43:46.139Z,100638.00
2017-10-23T11:44:52.267Z,100641.61
2017-10-23T11:45:58.380Z,100637.07
2017-10-23T11:47:04.513Z,100636.65
2017-10-23T11:48:10.604Z,100640.14
2017-10-23T11:49:16.591Z,100636.67
2017-10-23T11:50:22.696Z,100640.32
2017-10-23T11:51:28.804Z,100646.93
2017-10-23T11:52:34.892Z,100638.36
2017-10-23T11:53:41.057Z,100635.72
2017-10-23T11:54:49.037Z,100645.12
2017-10-23T11:55:55.137Z,100645.68
2017-10-23T11:57:01.232Z,100638.30
2017-10-23T11:58:07.313Z,100639.61
2017-10-23T11:59:13.423Z,100644.79
2017-10-23T12:00:19.507Z,100650.19
2017-10-23T12:01:25.398Z,100648.25
2017-10-23T12:02:34.478Z,100644.77
2017-10-23T12:03:40.666Z,100646.87
2017-10-23T12:04:46.775Z,100644.72
2017-10-23T12:05:52.477Z,100651.00
2017-10-23T12:06:58.604Z,100652.41
2017-10-23T12:08:04.715Z,100640.27
2017-10-23T12:09:10.853Z,100651.42
2017-10-23T12:10:16.952Z,100644.23
2017-10-23T12:11:23.086Z,100651.59
2017-10-23T12:12:29.211Z,100647.24
2017-10-23T12:13:34.941Z,100649.45
2017-10-23T12:14:41.737Z,100653.00
2017-10-23T12:15:47.127Z,100644.85
2017-10-23T12:16:52.493Z,100653.25
2017-10-23T12:17:57.875Z,100658.23
2017-10-23T12:19:03.035Z,100662.05
2017-10-23T12:20:09.156Z,100662.64
2017-10-23T12:21:14.520Z,100669.02
2017-10-23T12:22:20.262Z,100657.92
2017-10-23T12:23:26.376Z,100663.42
2017-10-23T12:24:32.107Z,100657.61
2017-10-23T12:25:37.867Z,100665.44
2017-10-23T12:26:45.904Z,100663.20
2017-10-23T12:27:51.080Z,100665.33
2017-10-23T12:28:56.876Z,100678.08
2017-10-23T12:30:03.255Z,100664.34
2017-10-23T12:31:09.357Z,100666.98
2017-10-23T12:32:15.086Z,100666.19
2017-10-23T12:33:20.824Z,100671.59
2017-10-23T12:34:26.680Z,100671.83
2017-10-23T12:35:32.809Z,100666.75
2017-10-23T12:36:38.912Z,100667.58
2017-10-23T12:37:44.650Z,100673.70